createdAt,value
2023-09-30T00:00:05.752Z,14.23
2023-09-30T00:01:05.671Z,14.20
2023-09-30T00:02:05.692Z,14.19
2023-09-30T00:03:05.834Z,14.19
2023-09-30T00:04:05.714Z,14.19
2023-09-30T00:05:05.642Z,14.19
2023-09-30T00:06:05.694Z,14.16
2023-09-30T00:07:05.638Z,14.13
2023-09-30T00:08:05.663Z,14.12
2023-09-30T00:09:05.602Z,14.12
2023-09-30T00:10:05.553Z,14.13
2023-09-30T00:11:05.546Z,14.11
2023-09-30T00:12:05.575Z,14.08
2023-09-30T00:13:05.514Z,14.08
2023-09-30T00:14:05.526Z,14.08
2023-09-30T00:15:05.547Z,14.08
2023-09-30T00:16:05.472Z,14.05
2023-09-30T00:17:05.480Z,14.02
2023-09-30T00:18:05.519Z,14.04
2023-09-30T00:19:05.429Z,14.02
2023-09-30T00:20:05.434Z,14.02
2023-09-30T00:21:05.442Z,14.02
2023-09-30T00:22:05.416Z,14.05
2023-09-30T00:23:05.382Z,14.08
2023-09-30T00:24:05.450Z,14.09
2023-09-30T00:25:05.377Z,14.11
2023-09-30T00:26:05.343Z,14.12
2023-09-30T00:27:05.371Z,14.13
2023-09-30T00:28:05.337Z,14.09
2023-09-30T00:29:05.333Z,14.08
2023-09-30T00:30:05.404Z,14.09
2023-09-30T00:31:05.353Z,14.09
2023-09-30T00:32:05.303Z,14.09
2023-09-30T00:33:05.329Z,14.08
2023-09-30T00:34:05.269Z,14.06
2023-09-30T00:35:05.228Z,14.09
2023-09-30T00:36:05.263Z,14.09
2023-09-30T00:37:05.229Z,14.11
2023-09-30T00:38:05.218Z,14.13
2023-09-30T00:39:05.213Z,14.13
2023-09-30T00:40:05.165Z,14.16
2023-09-30T00:41:05.160Z,14.12
2023-09-30T00:42:05.174Z,14.12
2023-09-30T00:43:05.154Z,14.11
2023-09-30T00:44:05.113Z,14.11
2023-09-30T00:45:05.110Z,14.11
2023-09-30T00:46:05.134Z,14.13
2023-09-30T00:47:05.185Z,14.17
2023-09-30T00:48:05.117Z,14.19
2023-09-30T00:49:05.115Z,14.16
2023-09-30T00:50:05.054Z,14.16
2023-09-30T00:51:05.099Z,14.13
2023-09-30T00:52:05.017Z,14.17
2023-09-30T00:53:05.012Z,14.17
2023-09-30T00:54:05.058Z,14.17
2023-09-30T00:55:04.992Z,14.16
2023-09-30T00:56:04.981Z,14.19
2023-09-30T00:57:04.990Z,14.13
2023-09-30T00:58:04.951Z,14.13
2023-09-30T00:59:04.953Z,14.12
2023-09-30T01:00:04.920Z,14.11
2023-09-30T01:01:04.920Z,14.09
2023-09-30T01:02:04.941Z,14.11
2023-09-30T01:03:05.353Z,14.11
2023-09-30T01:04:05.022Z,14.11
2023-09-30T01:05:04.848Z,14.11
2023-09-30T01:06:04.864Z,14.11
2023-09-30T01:07:04.836Z,14.09
2023-09-30T01:08:04.832Z,14.09
2023-09-30T01:09:04.845Z,14.08
2023-09-30T01:10:04.790Z,14.09
2023-09-30T01:11:04.790Z,14.06
2023-09-30T01:12:04.801Z,14.08
2023-09-30T01:13:04.765Z,14.08
2023-09-30T01:14:04.771Z,14.09
2023-09-30T01:15:06.310Z,14.09
2023-09-30T01:16:04.770Z,14.09
2023-09-30T01:17:04.718Z,14.08
2023-09-30T01:18:04.728Z,14.09
2023-09-30T01:19:04.678Z,14.08
2023-09-30T01:20:04.660Z,14.08
2023-09-30T01:21:04.735Z,14.09
2023-09-30T01:22:04.639Z,14.09
2023-09-30T01:23:04.640Z,14.11
2023-09-30T01:24:04.609Z,14.13
2023-09-30T01:25:04.599Z,14.12
2023-09-30T01:26:04.576Z,14.13
2023-09-30T01:27:04.595Z,14.13
2023-09-30T01:28:04.565Z,14.16
2023-09-30T01:29:04.542Z,14.16
2023-09-30T01:30:04.546Z,14.13
2023-09-30T01:31:04.522Z,14.11
2023-09-30T01:32:04.499Z,14.06
2023-09-30T01:33:04.589Z,14.06
2023-09-30T01:34:04.477Z,14.05
2023-09-30T01:35:04.480Z,14.04
2023-09-30T01:36:04.465Z,14.04
2023-09-30T01:37:04.448Z,14.04
2023-09-30T01:38:04.446Z,14.05
2023-09-30T01:39:04.410Z,14.05
2023-09-30T01:40:04.407Z,14.06
2023-09-30T01:41:04.407Z,14.05
2023-09-30T01:42:04.406Z,14.06
2023-09-30T01:43:04.394Z,14.05
2023-09-30T01:44:04.366Z,14.06
2023-09-30T01:45:04.369Z,14.06
2023-09-30T01:46:04.353Z,14.08
2023-09-30T01:47:04.329Z,14.08
2023-09-30T01:48:04.345Z,14.08
2023-09-30T01:49:04.270Z,14.08
2023-09-30T01:50:04.285Z,14.08
2023-09-30T01:51:04.322Z,14.09
2023-09-30T01:52:04.264Z,14.11
2023-09-30T01:53:04.247Z,14.09
2023-09-30T01:54:04.312Z,14.08
2023-09-30T01:55:04.329Z,14.08
2023-09-30T01:56:04.236Z,14.06
2023-09-30T01:57:04.219Z,14.05
2023-09-30T01:58:04.198Z,14.04
2023-09-30T01:59:04.153Z,13.99
2023-09-30T02:00:04.140Z,13.98
2023-09-30T02:01:04.162Z,13.98
2023-09-30T02:02:04.132Z,13.98
2023-09-30T02:03:04.211Z,13.98
2023-09-30T02:04:04.166Z,13.94
2023-09-30T02:05:04.095Z,13.94
2023-09-30T02:06:04.098Z,13.93
2023-09-30T02:07:04.065Z,13.91
2023-09-30T02:08:04.074Z,13.90
2023-09-30T02:09:04.037Z,13.87
2023-09-30T02:10:04.016Z,13.86
2023-09-30T02:11:04.009Z,13.86
2023-09-30T02:12:04.031Z,13.83
2023-09-30T02:13:04.067Z,13.83
2023-09-30T02:14:03.991Z,13.81
2023-09-30T02:15:03.976Z,13.81
2023-09-30T02:16:03.990Z,13.80
2023-09-30T02:17:03.941Z,13.76
2023-09-30T02:18:03.966Z,13.71
2023-09-30T02:19:03.905Z,13.71
2023-09-30T02:20:03.904Z,13.69
2023-09-30T02:21:03.899Z,13.66
2023-09-30T02:22:03.855Z,13.65
2023-09-30T02:23:03.871Z,13.62
2023-09-30T02:24:03.844Z,13.62
2023-09-30T02:25:03.825Z,13.63
2023-09-30T02:26:03.814Z,13.63
2023-09-30T02:27:03.793Z,13.65
2023-09-30T02:28:03.816Z,13.63
2023-09-30T02:29:03.778Z,13.63
2023-09-30T02:30:03.779Z,13.63
2023-09-30T02:31:03.790Z,13.59
2023-09-30T02:32:03.724Z,13.62
2023-09-30T02:33:03.738Z,13.59
2023-09-30T02:34:03.773Z,13.59
2023-09-30T02:35:03.712Z,13.55
2023-09-30T02:36:03.686Z,13.55
2023-09-30T02:37:03.665Z,13.54
2023-09-30T02:38:03.660Z,13.54
2023-09-30T02:39:03.644Z,13.53
2023-09-30T02:40:03.621Z,13.51
2023-09-30T02:41:03.626Z,13.50
2023-09-30T02:42:03.608Z,13.48
2023-09-30T02:43:03.609Z,13.48
2023-09-30T02:44:03.590Z,13.48
2023-09-30T02:45:03.604Z,13.48
2023-09-30T02:46:03.743Z,13.46
2023-09-30T02:47:03.552Z,13.48
2023-09-30T02:48:03.576Z,13.47
2023-09-30T02:49:03.624Z,13.48
2023-09-30T02:50:03.521Z,13.46
2023-09-30T02:51:03.486Z,13.47
2023-09-30T02:52:03.484Z,13.48
2023-09-30T02:53:03.490Z,13.46
2023-09-30T02:54:03.473Z,13.47
2023-09-30T02:55:03.436Z,13.48
2023-09-30T02:56:03.446Z,13.46
2023-09-30T02:57:03.407Z,13.47
2023-09-30T02:58:03.401Z,13.47
2023-09-30T02:59:03.414Z,13.46
2023-09-30T03:00:03.471Z,13.43
2023-09-30T03:01:03.527Z,13.43
2023-09-30T03:02:03.414Z,13.44
2023-09-30T03:03:03.353Z,13.43
2023-09-30T03:04:03.364Z,13.41
2023-09-30T03:05:03.381Z,13.39
2023-09-30T03:06:03.304Z,13.38
2023-09-30T03:07:03.313Z,13.39
2023-09-30T03:08:03.276Z,13.39
2023-09-30T03:09:03.274Z,13.41
2023-09-30T03:10:03.270Z,13.38
2023-09-30T03:11:03.249Z,13.36
2023-09-30T03:12:03.241Z,13.38
2023-09-30T03:13:03.290Z,13.38
2023-09-30T03:14:03.226Z,13.38
2023-09-30T03:15:03.182Z,13.39
2023-09-30T03:16:03.170Z,13.36
2023-09-30T03:17:03.202Z,13.38
2023-09-30T03:18:03.262Z,13.38
2023-09-30T03:19:03.193Z,13.39
2023-09-30T03:20:03.114Z,13.43
2023-09-30T03:21:03.269Z,13.43
2023-09-30T03:22:03.094Z,13.44
2023-09-30T03:23:03.083Z,13.44
2023-09-30T03:24:03.087Z,13.44
2023-09-30T03:25:03.055Z,13.43
2023-09-30T03:26:03.049Z,13.38
2023-09-30T03:27:03.042Z,13.38
2023-09-30T03:28:03.040Z,13.35
2023-09-30T03:29:03.015Z,13.32
2023-09-30T03:30:03.008Z,13.35
2023-09-30T03:31:03.021Z,13.35
2023-09-30T03:32:02.970Z,13.31
2023-09-30T03:33:02.999Z,13.29
2023-09-30T03:34:02.958Z,13.28
2023-09-30T03:35:02.943Z,13.28
2023-09-30T03:36:02.929Z,13.28
2023-09-30T03:37:02.928Z,13.25
2023-09-30T03:38:02.893Z,13.27
2023-09-30T03:39:02.883Z,13.27
2023-09-30T03:40:02.860Z,13.25
2023-09-30T03:41:02.861Z,13.24
2023-09-30T03:42:02.831Z,13.24
2023-09-30T03:43:02.814Z,13.24
2023-09-30T03:44:02.845Z,13.24
2023-09-30T03:45:02.803Z,13.21
2023-09-30T03:46:02.771Z,13.21
2023-09-30T03:47:02.750Z,13.21
2023-09-30T03:48:02.788Z,13.16
2023-09-30T03:49:02.744Z,13.17
2023-09-30T03:50:02.730Z,13.13
2023-09-30T03:51:02.700Z,13.16
2023-09-30T03:52:02.700Z,13.14
2023-09-30T03:53:02.684Z,13.12
2023-09-30T03:54:02.688Z,13.10
2023-09-30T03:55:02.648Z,13.12
2023-09-30T03:56:02.654Z,13.12
2023-09-30T03:57:02.622Z,13.12
2023-09-30T03:58:02.620Z,13.09
2023-09-30T03:59:02.618Z,13.07
2023-09-30T04:00:02.616Z,13.10
2023-09-30T04:01:02.705Z,13.12
2023-09-30T04:02:02.620Z,13.13
2023-09-30T04:03:02.636Z,13.17
2023-09-30T04:04:02.967Z,13.17
2023-09-30T04:05:02.521Z,13.21
2023-09-30T04:06:02.508Z,13.21
2023-09-30T04:07:02.493Z,13.21
2023-09-30T04:08:02.540Z,13.21
2023-09-30T04:09:02.507Z,13.24
2023-09-30T04:10:02.611Z,13.19
2023-09-30T04:11:02.458Z,13.16
2023-09-30T04:12:02.435Z,13.14
2023-09-30T04:13:02.416Z,13.12
2023-09-30T04:14:02.424Z,13.09
2023-09-30T04:15:02.418Z,13.10
2023-09-30T04:16:02.475Z,13.07
2023-09-30T04:17:02.359Z,13.07
2023-09-30T04:18:02.400Z,13.04
2023-09-30T04:19:02.358Z,13.01
2023-09-30T04:20:02.330Z,13.01
2023-09-30T04:21:02.322Z,13.01
2023-09-30T04:22:02.306Z,13.01
2023-09-30T04:23:02.313Z,13.04
2023-09-30T04:24:02.305Z,13.04
2023-09-30T04:25:02.257Z,13.06
2023-09-30T04:26:02.257Z,13.04
2023-09-30T04:27:02.238Z,13.04
2023-09-30T04:28:02.232Z,13.04
2023-09-30T04:29:02.300Z,13.06
2023-09-30T04:30:02.235Z,13.07
2023-09-30T04:31:02.311Z,13.09
2023-09-30T04:32:02.284Z,13.07
2023-09-30T04:33:02.191Z,13.04
2023-09-30T04:34:02.317Z,13.04
2023-09-30T04:35:02.145Z,13.04
2023-09-30T04:36:02.119Z,13.03
2023-09-30T04:37:02.114Z,13.04
2023-09-30T04:38:02.111Z,13.01
2023-09-30T04:39:02.149Z,12.99
2023-09-30T04:40:02.070Z,13.01
2023-09-30T04:41:02.053Z,12.99
2023-09-30T04:42:02.066Z,12.95
2023-09-30T04:43:02.061Z,12.91
2023-09-30T04:44:02.057Z,12.92
2023-09-30T04:45:02.009Z,12.92
2023-09-30T04:46:01.989Z,12.89
2023-09-30T04:47:01.991Z,12.88
2023-09-30T04:48:02.026Z,12.84
2023-09-30T04:49:02.010Z,12.84
2023-09-30T04:50:01.969Z,12.81
2023-09-30T04:51:01.919Z,12.80
2023-09-30T04:52:01.934Z,12.81
2023-09-30T04:53:01.933Z,12.80
2023-09-30T04:54:01.939Z,12.77
2023-09-30T04:55:01.906Z,12.74
2023-09-30T04:56:01.901Z,12.74
2023-09-30T04:57:01.877Z,12.74
2023-09-30T04:58:01.840Z,12.74
2023-09-30T04:59:01.812Z,12.71
2023-09-30T05:00:01.894Z,12.70
2023-09-30T05:01:01.954Z,12.69
2023-09-30T05:02:01.794Z,12.67
2023-09-30T05:03:01.846Z,12.66
2023-09-30T05:04:02.110Z,12.63
2023-09-30T05:05:01.762Z,12.62
2023-09-30T05:06:01.736Z,12.63
2023-09-30T05:07:01.729Z,12.63
2023-09-30T05:08:01.701Z,12.61
2023-09-30T05:09:01.686Z,12.61
2023-09-30T05:10:03.957Z,12.61
2023-09-30T05:11:01.676Z,12.59
2023-09-30T05:12:01.671Z,12.58
2023-09-30T05:13:01.658Z,12.56
2023-09-30T05:14:01.685Z,12.54
2023-09-30T05:15:01.659Z,12.55
2023-09-30T05:16:01.704Z,12.54
2023-09-30T05:17:01.642Z,12.51
2023-09-30T05:18:01.655Z,12.51
2023-09-30T05:19:01.567Z,12.49
2023-09-30T05:20:01.574Z,12.51
2023-09-30T05:21:01.560Z,12.49
2023-09-30T05:22:01.543Z,12.51
2023-09-30T05:23:01.505Z,12.49
2023-09-30T05:24:01.537Z,12.49
2023-09-30T05:25:01.497Z,12.51
2023-09-30T05:26:01.483Z,12.49
2023-09-30T05:27:01.461Z,12.48
2023-09-30T05:28:01.470Z,12.44
2023-09-30T05:29:01.438Z,12.49
2023-09-30T05:30:01.456Z,12.48
2023-09-30T05:31:01.567Z,12.49
2023-09-30T05:32:01.672Z,12.54
2023-09-30T05:33:01.461Z,12.54
2023-09-30T05:34:01.935Z,12.56
2023-09-30T05:35:01.385Z,12.59
2023-09-30T05:36:01.451Z,12.59
2023-09-30T05:37:01.333Z,12.59
2023-09-30T05:38:01.330Z,12.58
2023-09-30T05:39:01.300Z,12.56
2023-09-30T05:40:01.309Z,12.58
2023-09-30T05:41:01.334Z,12.59
2023-09-30T05:42:01.295Z,12.58
2023-09-30T05:43:01.352Z,12.61
2023-09-30T05:44:01.240Z,12.59
2023-09-30T05:45:01.235Z,12.62
2023-09-30T05:46:02.363Z,12.63
2023-09-30T05:47:01.203Z,12.63
2023-09-30T05:48:01.248Z,12.67
2023-09-30T05:49:01.269Z,12.69
2023-09-30T05:50:01.177Z,12.71
2023-09-30T05:51:01.150Z,12.73
2023-09-30T05:52:01.147Z,12.73
2023-09-30T05:53:01.171Z,12.73
2023-09-30T05:54:01.128Z,12.74
2023-09-30T05:55:01.138Z,12.73
2023-09-30T05:56:04.175Z,12.74
2023-09-30T05:57:01.078Z,12.77
2023-09-30T05:58:01.111Z,12.79
2023-09-30T05:59:01.056Z,12.80
2023-09-30T06:00:01.069Z,12.84
2023-09-30T06:01:01.070Z,12.85
2023-09-30T06:02:01.097Z,12.88
2023-09-30T06:03:01.235Z,12.88
2023-09-30T06:04:01.153Z,12.89
2023-09-30T06:05:00.979Z,12.89
2023-09-30T06:06:00.978Z,12.91
2023-09-30T06:07:00.945Z,12.92
2023-09-30T06:08:00.933Z,12.92
2023-09-30T06:09:00.921Z,12.91
2023-09-30T06:10:00.916Z,12.92
2023-09-30T06:11:00.887Z,12.92
2023-09-30T06:12:00.886Z,12.92
2023-09-30T06:13:01.025Z,12.92
2023-09-30T06:14:00.865Z,12.92
2023-09-30T06:15:00.862Z,12.94
2023-09-30T06:16:00.966Z,12.95
2023-09-30T06:17:00.870Z,12.95
2023-09-30T06:18:00.846Z,12.98
2023-09-30T06:19:00.827Z,12.95
2023-09-30T06:20:00.863Z,12.96
2023-09-30T06:21:00.776Z,12.96
2023-09-30T06:22:00.759Z,12.99
2023-09-30T06:23:00.738Z,13.03
2023-09-30T06:24:00.729Z,13.04
2023-09-30T06:25:00.844Z,13.06
2023-09-30T06:26:00.756Z,13.07
2023-09-30T06:27:00.687Z,13.07
2023-09-30T06:28:00.711Z,13.10
2023-09-30T06:29:00.663Z,13.10
2023-09-30T06:30:00.674Z,13.12
2023-09-30T06:31:00.735Z,13.14
2023-09-30T06:32:00.631Z,13.16
2023-09-30T06:33:00.695Z,13.21
2023-09-30T06:34:00.605Z,13.22
2023-09-30T06:35:00.612Z,13.24
2023-09-30T06:36:00.610Z,13.28
2023-09-30T06:37:00.561Z,13.28
2023-09-30T06:38:00.557Z,13.28
2023-09-30T06:39:00.533Z,13.32
2023-09-30T06:40:00.553Z,13.35
2023-09-30T06:41:00.519Z,13.36
2023-09-30T06:42:00.493Z,13.41
2023-09-30T06:43:00.484Z,13.41
2023-09-30T06:44:00.516Z,13.46
2023-09-30T06:45:00.490Z,13.46
2023-09-30T06:46:00.547Z,13.47
2023-09-30T06:47:00.446Z,13.48
2023-09-30T06:48:00.495Z,13.48
2023-09-30T06:49:00.644Z,13.50
2023-09-30T06:50:00.411Z,13.51
2023-09-30T06:51:00.376Z,13.51
2023-09-30T06:52:00.367Z,13.55
2023-09-30T06:53:00.400Z,13.59
2023-09-30T06:54:00.354Z,13.61
2023-09-30T06:55:00.343Z,13.63
2023-09-30T06:56:00.300Z,13.66
2023-09-30T06:57:00.302Z,13.66
2023-09-30T06:58:00.433Z,13.68
2023-09-30T06:59:00.285Z,13.72
2023-09-30T07:00:00.277Z,13.76
2023-09-30T07:01:00.282Z,13.80
2023-09-30T07:02:00.275Z,13.83
2023-09-30T07:03:00.244Z,13.86
2023-09-30T07:04:00.347Z,13.88
2023-09-30T07:05:00.207Z,13.90
2023-09-30T07:06:00.244Z,13.91
2023-09-30T07:07:00.217Z,13.94
2023-09-30T07:08:00.173Z,13.98
2023-09-30T07:09:00.161Z,14.01
2023-09-30T07:10:00.219Z,14.06
2023-09-30T07:11:00.130Z,14.08
2023-09-30T07:12:00.111Z,14.09
2023-09-30T07:13:00.136Z,14.12
2023-09-30T07:14:00.122Z,14.16
2023-09-30T07:15:00.195Z,14.17
2023-09-30T07:16:00.173Z,14.17
2023-09-30T07:17:00.118Z,14.20
2023-09-30T07:18:00.064Z,14.21
2023-09-30T07:19:00.242Z,14.24
2023-09-30T07:20:00.019Z,14.29
2023-09-30T07:21:00.020Z,14.31
2023-09-30T07:22:04.723Z,14.35
2023-09-30T07:23:11.990Z,14.38
2023-09-30T07:24:00.948Z,14.39
2023-09-30T07:25:00.023Z,14.42
2023-09-30T07:26:00.038Z,14.46
2023-09-30T07:27:00.696Z,14.48
2023-09-30T07:27:59.979Z,14.52
2023-09-30T07:28:59.899Z,14.52
2023-09-30T07:29:59.869Z,14.53
2023-09-30T07:30:59.953Z,14.56
2023-09-30T07:31:59.899Z,14.57
2023-09-30T07:32:59.957Z,14.59
2023-09-30T07:33:59.905Z,14.61
2023-09-30T07:34:59.814Z,14.61
2023-09-30T07:35:59.824Z,14.63
2023-09-30T07:36:59.862Z,14.64
2023-09-30T07:37:59.766Z,14.64
2023-09-30T07:38:59.851Z,14.66
2023-09-30T07:39:59.784Z,14.71
2023-09-30T07:40:59.756Z,14.72
2023-09-30T07:41:59.727Z,14.72
2023-09-30T07:42:59.785Z,14.75
2023-09-30T07:43:59.716Z,14.80
2023-09-30T07:44:59.767Z,14.80
2023-09-30T07:46:00.277Z,14.82
2023-09-30T07:46:59.690Z,14.83
2023-09-30T07:47:59.847Z,14.83
2023-09-30T07:48:59.836Z,14.85
2023-09-30T07:49:59.610Z,14.86
2023-09-30T07:50:59.634Z,14.87
2023-09-30T07:51:59.621Z,14.90
2023-09-30T07:52:59.594Z,14.91
2023-09-30T07:54:13.967Z,14.87
2023-09-30T07:55:00.612Z,14.87
2023-09-30T07:55:59.571Z,14.91
2023-09-30T07:56:59.546Z,14.93
2023-09-30T07:57:59.655Z,14.95
2023-09-30T07:58:59.658Z,14.95
2023-09-30T07:59:59.494Z,14.98
2023-09-30T08:00:59.638Z,15.00
2023-09-30T08:01:59.511Z,15.00
2023-09-30T08:02:59.483Z,15.01
2023-09-30T08:03:59.515Z,15.01
2023-09-30T08:04:59.436Z,15.04
2023-09-30T08:05:59.461Z,15.05
2023-09-30T08:06:59.434Z,15.07
2023-09-30T08:07:59.405Z,15.12
2023-09-30T08:08:59.470Z,15.16
2023-09-30T08:09:59.400Z,15.16
2023-09-30T08:10:59.360Z,15.18
2023-09-30T08:11:59.382Z,15.20
2023-09-30T08:12:59.388Z,15.22
2023-09-30T08:13:59.316Z,15.23
2023-09-30T08:14:59.342Z,15.25
2023-09-30T08:15:59.324Z,15.31
2023-09-30T08:16:59.312Z,15.35
2023-09-30T08:17:59.305Z,15.34
2023-09-30T08:18:59.479Z,15.34
2023-09-30T08:19:59.249Z,15.35
2023-09-30T08:20:59.245Z,15.37
2023-09-30T08:21:59.287Z,15.38
2023-09-30T08:22:59.196Z,15.34
2023-09-30T08:23:59.214Z,15.34
2023-09-30T08:24:59.221Z,15.38
2023-09-30T08:25:59.182Z,15.41
2023-09-30T08:26:59.162Z,15.44
2023-09-30T08:27:59.148Z,15.49
2023-09-30T08:28:59.230Z,15.51
2023-09-30T08:29:59.100Z,15.56
2023-09-30T08:30:59.165Z,15.59
2023-09-30T08:31:59.121Z,15.60
2023-09-30T08:32:59.114Z,15.62
2023-09-30T08:33:59.101Z,15.68
2023-09-30T08:34:59.056Z,15.70
2023-09-30T08:35:59.067Z,15.73
2023-09-30T08:36:59.075Z,15.74
2023-09-30T08:37:59.019Z,15.77
2023-09-30T08:38:59.137Z,15.80
2023-09-30T08:39:59.047Z,15.85
2023-09-30T08:40:58.977Z,15.88
2023-09-30T08:41:58.966Z,15.88
2023-09-30T08:42:59.032Z,15.91
2023-09-30T08:43:58.942Z,15.95
2023-09-30T08:44:58.913Z,15.98
2023-09-30T08:45:58.983Z,15.98
2023-09-30T08:46:58.936Z,16.01
2023-09-30T08:47:58.936Z,16.06
2023-09-30T08:48:59.204Z,16.07
2023-09-30T08:49:58.867Z,16.11
2023-09-30T08:50:58.854Z,16.14
2023-09-30T08:51:58.892Z,16.18
2023-09-30T08:52:58.814Z,16.25
2023-09-30T08:53:58.833Z,16.25
2023-09-30T08:54:58.833Z,16.22
2023-09-30T08:55:58.782Z,16.25
2023-09-30T08:56:58.786Z,16.17
2023-09-30T08:58:01.225Z,16.16
2023-09-30T08:58:58.948Z,16.13
2023-09-30T08:59:58.743Z,16.14
2023-09-30T09:00:58.823Z,16.16
2023-09-30T09:01:58.713Z,16.22
2023-09-30T09:02:58.741Z,16.22
2023-09-30T09:03:58.917Z,16.25
2023-09-30T09:04:58.672Z,16.26
2023-09-30T09:05:58.646Z,16.30
2023-09-30T09:06:58.719Z,16.32
2023-09-30T09:07:58.631Z,16.36
2023-09-30T09:08:58.823Z,16.41
2023-09-30T09:09:58.613Z,16.41
2023-09-30T09:10:58.576Z,16.42
2023-09-30T09:11:58.576Z,16.47
2023-09-30T09:12:58.602Z,16.48
2023-09-30T09:13:58.553Z,16.52
2023-09-30T09:14:58.554Z,16.55
2023-09-30T09:15:58.643Z,16.54
2023-09-30T09:16:58.599Z,16.54
2023-09-30T09:17:58.537Z,16.55
2023-09-30T09:18:58.705Z,16.57
2023-09-30T09:19:58.451Z,16.55
2023-09-30T09:20:58.452Z,16.52
2023-09-30T09:21:58.450Z,16.51
2023-09-30T09:22:58.438Z,16.51
2023-09-30T09:23:58.409Z,16.54
2023-09-30T09:24:58.417Z,16.59
2023-09-30T09:25:58.377Z,16.62
2023-09-30T09:26:58.358Z,16.65
2023-09-30T09:27:58.418Z,16.63
2023-09-30T09:28:58.659Z,16.60
2023-09-30T09:29:58.337Z,16.57
2023-09-30T09:31:00.512Z,16.57
2023-09-30T09:31:58.372Z,16.54
2023-09-30T09:33:01.970Z,16.52
2023-09-30T09:33:58.334Z,16.45
2023-09-30T09:34:58.269Z,16.47
2023-09-30T09:35:58.239Z,16.42
2023-09-30T09:36:58.254Z,16.42
2023-09-30T09:37:58.242Z,16.45
2023-09-30T09:38:58.334Z,16.51
2023-09-30T09:39:58.508Z,16.57
2023-09-30T09:40:58.190Z,16.65
2023-09-30T09:41:58.188Z,16.77
2023-09-30T09:42:58.218Z,16.84
2023-09-30T09:43:58.135Z,16.91
2023-09-30T09:44:58.122Z,16.95
2023-09-30T09:45:58.184Z,16.98
2023-09-30T09:46:58.164Z,17.00
2023-09-30T09:47:58.121Z,17.03
2023-09-30T09:48:58.349Z,17.00
2023-09-30T09:49:58.077Z,17.02
2023-09-30T09:50:58.069Z,16.99
2023-09-30T09:51:58.104Z,16.98
2023-09-30T09:52:58.034Z,16.98
2023-09-30T09:53:58.006Z,16.98
2023-09-30T09:54:58.018Z,16.96
2023-09-30T09:55:57.998Z,16.95
2023-09-30T09:56:57.984Z,16.90
2023-09-30T09:57:58.042Z,16.85
2023-09-30T09:58:58.091Z,16.80
2023-09-30T09:59:59.998Z,16.78
2023-09-30T10:00:58.002Z,16.75
2023-09-30T10:01:57.941Z,16.77
2023-09-30T10:02:58.003Z,16.78
2023-09-30T10:03:57.912Z,16.77
2023-09-30T10:04:58.278Z,16.80
2023-09-30T10:05:57.850Z,16.81
2023-09-30T10:06:57.912Z,16.82
2023-09-30T10:07:57.828Z,16.81
2023-09-30T10:08:57.977Z,16.81
2023-09-30T10:09:57.828Z,16.80
2023-09-30T10:10:57.803Z,16.77
2023-09-30T10:11:57.801Z,16.72
2023-09-30T10:12:57.888Z,16.67
2023-09-30T10:13:57.772Z,16.65
2023-09-30T10:14:57.767Z,16.63
2023-09-30T10:15:57.756Z,16.62
2023-09-30T10:16:57.818Z,16.59
2023-09-30T10:17:57.777Z,16.60
2023-09-30T10:18:57.907Z,16.59
2023-09-30T10:19:57.691Z,16.54
2023-09-30T10:20:57.683Z,16.54
2023-09-30T10:21:57.673Z,16.50
2023-09-30T10:22:57.645Z,16.51
2023-09-30T10:23:57.639Z,16.54
2023-09-30T10:24:57.671Z,16.55
2023-09-30T10:25:57.610Z,16.55
2023-09-30T10:26:57.607Z,16.60
2023-09-30T10:27:57.607Z,16.63
2023-09-30T10:28:57.739Z,16.69
2023-09-30T10:29:57.541Z,16.73
2023-09-30T10:30:57.601Z,16.77
2023-09-30T10:31:57.528Z,16.82
2023-09-30T10:32:57.526Z,16.91
2023-09-30T10:33:57.532Z,16.98
2023-09-30T10:34:57.529Z,17.05
2023-09-30T10:35:58.427Z,17.12
2023-09-30T10:36:57.505Z,17.18
2023-09-30T10:37:57.449Z,17.25
2023-09-30T10:38:57.650Z,17.27
2023-09-30T10:39:57.516Z,17.32
2023-09-30T10:40:57.420Z,17.38
2023-09-30T10:41:57.415Z,17.38
2023-09-30T10:42:57.445Z,17.42
2023-09-30T10:43:57.380Z,17.40
2023-09-30T10:44:57.370Z,17.43
2023-09-30T10:45:57.409Z,17.46
2023-09-30T10:46:57.358Z,17.46
2023-09-30T10:47:57.402Z,17.49
2023-09-30T10:48:57.620Z,17.55
2023-09-30T10:49:57.328Z,17.60
2023-09-30T10:50:57.284Z,17.63
2023-09-30T10:51:57.333Z,17.63
2023-09-30T10:52:57.256Z,17.66
2023-09-30T10:53:57.244Z,17.62
2023-09-30T10:54:57.310Z,17.60
2023-09-30T10:55:57.227Z,17.60
2023-09-30T10:56:57.226Z,17.60
2023-09-30T10:57:57.269Z,17.60
2023-09-30T10:58:57.473Z,17.55
2023-09-30T10:59:57.181Z,17.51
2023-09-30T11:00:57.338Z,17.46
2023-09-30T11:01:57.442Z,17.42
2023-09-30T11:02:59.108Z,17.39
2023-09-30T11:03:57.300Z,17.38
2023-09-30T11:04:57.190Z,17.36
2023-09-30T11:06:11.752Z,17.35
2023-09-30T11:06:58.152Z,17.28
2023-09-30T11:07:57.074Z,17.30
2023-09-30T11:08:57.291Z,17.35
2023-09-30T11:09:57.265Z,17.38
2023-09-30T11:10:57.039Z,17.36
2023-09-30T11:11:57.033Z,17.33
2023-09-30T11:12:57.044Z,17.30
2023-09-30T11:13:57.025Z,17.32
2023-09-30T11:14:56.975Z,17.30
2023-09-30T11:15:56.992Z,17.25
2023-09-30T11:16:57.000Z,17.25
2023-09-30T11:17:56.961Z,17.27
2023-09-30T11:18:57.159Z,17.28
2023-09-30T11:19:56.965Z,17.28
2023-09-30T11:20:56.915Z,17.32
2023-09-30T11:21:56.970Z,17.33
2023-09-30T11:22:56.875Z,17.35
2023-09-30T11:23:56.880Z,17.35
2023-09-30T11:24:56.874Z,17.33
2023-09-30T11:25:56.877Z,17.30
2023-09-30T11:26:56.868Z,17.27
2023-09-30T11:27:56.835Z,17.24
2023-09-30T11:28:57.020Z,17.21
2023-09-30T11:29:56.821Z,17.22
2023-09-30T11:30:56.884Z,17.24
2023-09-30T11:31:56.838Z,17.24
2023-09-30T11:32:56.756Z,17.22
2023-09-30T11:33:56.774Z,17.22
2023-09-30T11:34:56.716Z,17.24
2023-09-30T11:35:56.744Z,17.24
2023-09-30T11:36:56.758Z,17.24
2023-09-30T11:37:56.677Z,17.22
2023-09-30T11:38:56.834Z,17.21
2023-09-30T11:39:56.726Z,17.20
2023-09-30T11:40:56.672Z,17.17
2023-09-30T11:41:56.641Z,17.17
2023-09-30T11:42:56.674Z,17.18
2023-09-30T11:43:56.620Z,17.17
2023-09-30T11:44:56.596Z,17.15
2023-09-30T11:45:56.676Z,17.12
2023-09-30T11:46:56.725Z,17.10
2023-09-30T11:47:56.577Z,17.10
2023-09-30T11:48:56.868Z,17.10
2023-09-30T11:49:56.540Z,17.07
2023-09-30T11:50:56.543Z,17.07
2023-09-30T11:51:56.562Z,17.05
2023-09-30T11:53:07.832Z,17.03
2023-09-30T11:53:56.503Z,17.06
2023-09-30T11:54:56.519Z,17.10
2023-09-30T11:55:57.195Z,17.14
2023-09-30T11:56:56.435Z,17.17
2023-09-30T11:57:56.478Z,17.20
2023-09-30T11:58:56.482Z,17.27
2023-09-30T11:59:56.429Z,17.32
2023-09-30T12:00:56.448Z,17.35
2023-09-30T12:02:10.859Z,17.39
2023-09-30T12:02:57.420Z,17.45
2023-09-30T12:03:58.437Z,17.49
2023-09-30T12:04:56.357Z,17.53
2023-09-30T12:05:56.368Z,17.55
2023-09-30T12:06:56.341Z,17.62
2023-09-30T12:07:56.310Z,17.60
2023-09-30T12:08:56.741Z,17.63
2023-09-30T12:09:56.313Z,17.66
2023-09-30T12:10:56.279Z,17.70
2023-09-30T12:11:56.289Z,17.71
2023-09-30T12:12:56.256Z,17.71
2023-09-30T12:13:56.227Z,17.74
2023-09-30T12:14:56.215Z,17.76
2023-09-30T12:15:56.290Z,17.79
2023-09-30T12:16:56.194Z,17.80
2023-09-30T12:17:56.198Z,17.80
2023-09-30T12:18:56.287Z,17.79
2023-09-30T12:19:56.165Z,17.80
2023-09-30T12:20:56.194Z,17.81
2023-09-30T12:21:56.195Z,17.81
2023-09-30T12:22:56.120Z,17.84
2023-09-30T12:23:56.094Z,17.84
2023-09-30T12:24:56.137Z,17.87
2023-09-30T12:26:06.937Z,17.86
2023-09-30T12:26:57.087Z,17.86
2023-09-30T12:27:56.126Z,17.89
2023-09-30T12:28:56.210Z,17.92
2023-09-30T12:29:56.076Z,17.92
2023-09-30T12:30:56.111Z,17.94
2023-09-30T12:31:56.358Z,17.95
2023-09-30T12:32:56.102Z,17.95
2023-09-30T12:33:56.034Z,17.95
2023-09-30T12:34:55.942Z,17.96
2023-09-30T12:35:55.959Z,17.99
2023-09-30T12:36:56.003Z,17.98
2023-09-30T12:37:55.947Z,17.99
2023-09-30T12:38:56.095Z,17.98
2023-09-30T12:39:55.894Z,17.99
2023-09-30T12:40:55.904Z,18.01
2023-09-30T12:41:55.863Z,18.01
2023-09-30T12:42:55.864Z,18.01
2023-09-30T12:43:55.859Z,17.99
2023-09-30T12:44:55.835Z,17.99
2023-09-30T12:45:56.207Z,17.98
2023-09-30T12:46:55.879Z,17.98
2023-09-30T12:47:55.797Z,17.98
2023-09-30T12:48:55.924Z,17.98
2023-09-30T12:49:55.785Z,17.99
2023-09-30T12:50:55.780Z,18.02
2023-09-30T12:51:55.765Z,18.04